Time;durP1;ratioP1;P1;durP2;ratioP2;P2;SDS_P1;SDS_P2;PMS_P1;PMS_P2;Temp;Humidity;BMP_temperature;BMP_pressure;BME280_temperature;BME280_humidity;BME280_pressure;Samples;Min_cycle;Max_cycle;Signal;HPM_P1;HPM_P2
2023/02/02 06:56:47;;;;;;;15.02;1.63;;;15.60;64.40;;;;;;5639337;24;20524;-75
2023/02/02 06:59:13;;;;;;;18.33;2.30;;;15.60;66.60;;;;;;4826428;29;20091;-77
2023/02/02 07:01:38;;;;;;;23.50;2.28;;;15.70;65.50;;;;;;4811839;29;20046;-79
2023/02/02 07:04:04;;;;;;;13.85;1.73;;;15.70;64.10;;;;;;4836879;29;20118;-78
2023/02/02 07:06:30;;;;;;;24.02;2.67;;;15.70;64.80;;;;;;4828388;29;20446;-76
2023/02/02 07:08:56;;;;;;;23.67;2.30;;;15.70;64.90;;;;;;4845487;29;20437;-77
2023/02/02 07:11:22;;;;;;;14.30;1.33;;;15.70;64.50;;;;;;4845488;29;20064;-79
2023/02/02 07:13:49;;;;;;;12.80;1.55;;;15.60;63.60;;;;;;4846033;29;20377;-75
2023/02/02 07:16:16;;;;;;;13.25;1.65;;;15.00;61.70;;;;;;4845132;29;20053;-79
2023/02/02 07:18:43;;;;;;;14.32;1.30;;;15.10;64.00;;;;;;4814268;29;20046;-78
2023/02/02 07:21:18;;;;;;;18.02;2.08;;;15.10;64.50;;;;;;4826573;29;20125;-78
2023/02/02 07:23:44;;;;;;;14.98;1.65;;;15.10;64.90;;;;;;4826645;29;20053;-80
2023/02/02 07:26:12;;;;;;;10.00;1.67;;;15.10;65.00;;;;;;4829379;29;20042;-79
2023/02/02 07:28:39;;;;;;;11.80;1.85;;;15.10;65.20;;;;;;4826728;29;20039;-80
2023/02/02 07:31:20;;;;;;;13.48;1.17;;;15.10;65.30;;;;;;4826979;29;20038;-79
2023/02/02 07:33:47;;;;;;;10.75;2.65;;;15.10;65.20;;;;;;4818739;29;20038;-81
2023/02/02 07:36:16;;;;;;;13.27;2.00;;;15.10;65.20;;;;;;4829048;29;20065;-78
2023/02/02 07:38:43;;;;;;;10.23;1.45;;;15.10;65.20;;;;;;4826630;29;20046;-79
2023/02/02 07:41:08;;;;;;;7.90;1.25;;;15.10;65.30;;;;;;4815708;29;20069;-81
2023/02/02 07:43:34;;;;;;;8.10;0.90;;;15.10;65.20;;;;;;4826410;29;20054;-82
2023/02/02 07:46:02;;;;;;;4.07;0.77;;;15.10;64.70;;;;;;4807631;29;20061;-79
2023/02/02 07:48:30;;;;;;;4.30;0.70;;;15.10;64.00;;;;;;4810684;29;20046;-81
2023/02/02 07:51:05;;;;;;;1.33;0.55;;;15.10;63.30;;;;;;4810344;29;20146;-81
2023/02/02 07:53:31;;;;;;;4.00;1.00;;;15.10;62.70;;;;;;4825923;29;20409;-80
2023/02/02 07:56:08;;;;;;;4.25;1.17;;;15.10;62.50;;;;;;4810969;29;20140;-82
2023/02/02 07:58:34;;;;;;;3.65;1.13;;;15.00;62.00;;;;;;4794841;29;20046;-82
2023/02/02 08:01:01;;;;;;;2.22;0.80;;;15.00;62.20;;;;;;4795487;29;20054;-81
2023/02/02 08:03:29;;;;;;;5.82;1.40;;;14.90;62.20;;;;;;4795545;29;20069;-84
2023/02/02 08:05:57;;;;;;;2.45;0.50;;;14.80;62.30;;;;;;4826566;29;20477;-82
2023/02/02 08:08:23;;;;;;;2.47;0.50;;;14.80;62.60;;;;;;4810561;29;20129;-79
2023/02/02 08:10:53;;;;;;;4.05;0.75;;;14.70;62.80;;;;;;4825400;29;20133;-81
2023/02/02 08:13:19;;;;;;;2.75;1.00;;;14.70;63.00;;;;;;4823849;29;20070;-81
2023/02/02 08:15:46;;;;;;;2.03;0.32;;;14.60;63.20;;;;;;4810362;29;20115;-82
2023/02/02 08:18:11;;;;;;;2.00;0.30;;;14.60;63.40;;;;;;4810634;29;20050;-81
2023/02/02 08:20:37;;;;;;;2.08;0.40;;;14.60;63.60;;;;;;4834857;29;20373;-81
2023/02/02 08:23:03;;;;;;;6.75;0.90;;;14.60;63.80;;;;;;4826058;29;20042;-80
2023/02/02 08:25:29;;;;;;;4.47;0.73;;;14.70;63.70;;;;;;4827361;29;20382;-77
2023/02/02 08:28:00;;;;;;;5.05;0.82;;;14.60;63.80;;;;;;4844406;29;20410;-87
2023/02/02 08:30:26;;;;;;;9.52;1.13;;;14.60;63.90;;;;;;4844461;29;20134;-77
2023/02/02 08:32:51;;;;;;;5.05;0.90;;;14.40;63.80;;;;;;4844352;29;20540;-78
2023/02/02 08:35:18;;;;;;;7.50;1.10;;;14.60;64.40;;;;;;4843124;29;20124;-80
2023/02/02 08:37:47;;;;;;;7.63;1.27;;;14.70;64.30;;;;;;4825137;29;20046;-78
2023/02/02 08:40:14;;;;;;;7.03;0.82;;;14.80;64.20;;;;;;4841684;29;20054;-77
2023/02/02 08:42:40;;;;;;;6.32;1.17;;;14.90;64.20;;;;;;4842099;29;20117;-76
2023/02/02 08:45:06;;;;;;;6.60;1.33;;;15.00;64.30;;;;;;4844369;29;20098;-83
2023/02/02 08:47:32;;;;;;;4.55;0.73;;;15.20;64.40;;;;;;4828530;29;20050;-79
2023/02/02 08:49:58;;;;;;;7.03;1.02;;;15.20;64.50;;;;;;4861231;29;20041;-79
2023/02/02 08:52:26;;;;;;;10.57;1.25;;;15.30;64.60;;;;;;4862632;29;20448;-77
2023/02/02 08:54:52;;;;;;;9.18;1.00;;;15.40;64.70;;;;;;4858839;29;20100;-79
2023/02/02 08:57:17;;;;;;;7.07;0.98;;;15.40;64.50;;;;;;4861970;29;20065;-78
2023/02/02 08:59:43;;;;;;;7.68;0.88;;;15.50;64.50;;;;;;4846844;29;20445;-76
2023/02/02 09:02:12;;;;;;;6.32;1.27;;;15.50;64.60;;;;;;4858379;29;20433;-76
2023/02/02 09:04:39;;;;;;;11.48;1.13;;;15.60;64.50;;;;;;4862679;29;20124;-77
2023/02/02 09:07:05;;;;;;;8.77;1.48;;;15.70;64.60;;;;;;4846320;29;20053;-74
2023/02/02 09:09:31;;;;;;;10.88;1.05;;;15.70;64.30;;;;;;4862953;29;20409;-78
2023/02/02 09:11:57;;;;;;;8.10;1.42;;;15.80;64.00;;;;;;4862620;29;20174;-76
2023/02/02 09:14:23;;;;;;;7.78;1.35;;;15.80;64.50;;;;;;4862839;29;20202;-78
2023/02/02 09:16:48;;;;;;;10.27;0.90;;;15.90;64.70;;;;;;4863137;29;20049;-75
2023/02/02 09:19:14;;;;;;;6.68;0.85;;;15.90;64.80;;;;;;4858745;29;20125;-77
2023/02/02 09:21:40;;;;;;;5.82;0.80;;;15.90;64.20;;;;;;4838336;29;20464;-79
2023/02/02 09:24:08;;;;;;;6.35;0.85;;;15.90;63.30;;;;;;4862681;29;20057;-74
2023/02/02 09:26:34;;;;;;;5.30;1.08;;;15.90;62.30;;;;;;4861997;29;20468;-80
2023/02/02 09:29:03;;;;;;;5.25;0.95;;;15.90;61.90;;;;;;4846563;29;20045;-80
2023/02/02 09:31:34;;;;;;;7.88;0.70;;;15.90;62.00;;;;;;4846763;29;20058;-74
2023/02/02 09:34:04;;;;;;;7.55;1.38;;;15.90;62.40;;;;;;4861423;29;20081;-78
2023/02/02 09:36:30;;;;;;;8.80;1.00;;;15.90;62.80;;;;;;4865426;29;20352;-78
2023/02/02 09:38:56;;;;;;;11.95;1.40;;;15.90;63.20;;;;;;4848722;29;20137;-79
2023/02/02 09:41:28;;;;;;;14.40;1.10;;;15.90;63.30;;;;;;4853263;29;20449;-79
2023/02/02 09:44:27;;;;;;;9.40;1.23;;;16.00;63.40;;;;;;4849479;29;20054;-79
2023/02/02 09:47:23;;;;;;;9.68;1.08;;;16.10;63.30;;;;;;4832628;29;20050;-80
2023/02/02 09:50:11;;;;;;;6.93;1.00;;;16.10;63.50;;;;;;4846901;29;20046;-80
2023/02/02 09:52:41;;;;;;;12.77;0.70;;;16.10;63.60;;;;;;4863687;29;20053;-80
2023/02/02 09:55:49;;;;;;;3.28;0.60;;;16.00;63.70;;;;;;4855861;29;20481;-79
2023/02/02 09:58:22;;;;;;;10.30;0.93;;;16.10;63.60;;;;;;4830062;29;20457;-73
2023/02/02 10:01:07;;;;;;;7.07;0.83;;;16.10;63.60;;;;;;4851846;29;20050;-78
2023/02/02 10:03:55;;;;;;;7.05;0.73;;;16.10;63.50;;;;;;4846768;29;20291;-78
2023/02/02 10:06:31;;;;;;;2.90;0.60;;;16.10;63.30;;;;;;4863200;29;20049;-78
2023/02/02 10:09:09;;;;;;;4.85;0.82;;;16.10;63.30;;;;;;4848787;29;20378;-78
2023/02/02 10:11:52;;;;;;;4.90;0.73;;;16.10;63.30;;;;;;4846933;29;20462;-78
2023/02/02 10:14:43;;;;;;;4.95;1.05;;;16.10;63.40;;;;;;4846257;29;20126;-78
2023/02/02 10:17:35;;;;;;;5.68;0.50;;;16.10;63.40;;;;;;4838286;29;20068;-78
2023/02/02 10:20:11;;;;;;;14.55;1.27;;;16.10;63.50;;;;;;4856908;29;20442;-77
2023/02/02 10:22:38;;;;;;;5.20;0.55;;;16.10;63.50;;;;;;4832308;29;20049;-77
2023/02/02 10:25:04;;;;;;;4.80;0.85;;;16.10;63.70;;;;;;4842627;29;20453;-79
2023/02/02 10:27:39;;;;;;;6.43;1.00;;;16.10;63.70;;;;;;4839245;29;20634;-78
2023/02/02 10:30:21;;;;;;;6.18;0.70;;;16.20;63.80;;;;;;4839515;29;20118;-78
2023/02/02 10:33:08;;;;;;;7.05;1.30;;;16.20;63.90;;;;;;4840646;29;20073;-79
2023/02/02 10:35:43;;;;;;;6.80;0.70;;;16.10;63.80;;;;;;4846994;29;20062;-78
2023/02/02 10:38:37;;;;;;;16.17;1.73;;;16.20;63.90;;;;;;4829353;29;20053;-78
2023/02/02 10:41:08;;;;;;;6.65;0.55;;;16.10;63.90;;;;;;4847638;29;20088;-76
2023/02/02 10:44:26;;;;;;;4.75;0.80;;;16.10;64.00;;;;;;4852957;29;20046;-78
2023/02/02 10:46:54;;;;;;;3.22;0.50;;;16.10;64.00;;;;;;4776490;30;20268;-79
2023/02/02 10:49:26;;;;;;;6.43;0.40;;;16.00;64.20;;;;;;4777450;30;20439;-78
2023/02/02 10:52:10;;;;;;;2.72;0.75;;;16.00;64.10;;;;;;4808905;29;20084;-77
2023/02/02 10:55:05;;;;;;;6.55;1.02;;;16.00;64.30;;;;;;4846463;29;20331;-77
2023/02/02 10:57:50;;;;;;;7.05;0.47;;;15.90;64.10;;;;;;4841366;29;20472;-78
2023/02/02 11:00:24;;;;;;;7.40;0.95;;;15.90;64.20;;;;;;4853194;29;20449;-78
2023/02/02 11:02:51;;;;;;;4.60;0.82;;;15.90;64.30;;;;;;4853934;29;20037;-79
2023/02/02 11:08:19;;;;;;;1.48;0.28;;;15.80;64.80;;;;;;4844862;29;20053;-78
2023/02/02 11:10:48;;;;;;;3.13;0.73;;;15.80;64.60;;;;;;4833860;29;20453;-77
2023/02/02 11:13:32;;;;;;;3.33;0.68;;;15.80;64.90;;;;;;4836783;29;20058;-77
2023/02/02 11:16:13;;;;;;;1.77;0.50;;;15.80;65.30;;;;;;4830119;29;20058;-78
2023/02/02 11:18:40;;;;;;;5.47;0.45;;;15.90;65.30;;;;;;4830714;29;20118;-76
2023/02/02 11:21:36;;;;;;;2.88;0.50;;;15.90;64.60;;;;;;4863890;29;20422;-78
2023/02/02 11:24:26;;;;;;;4.10;0.38;;;15.90;63.90;;;;;;4804744;29;20099;-78
2023/02/02 11:27:00;;;;;;;1.50;0.20;;;15.90;65.40;;;;;;4829226;29;20125;-77
2023/02/02 11:29:28;;;;;;;;;;;15.90;64.70;;;;;;4845973;29;20054;-77
2023/02/02 11:31:54;;;;;;;2.35;0.30;;;15.90;64.60;;;;;;4829791;29;20411;-79
2023/02/02 11:34:25;;;;;;;2.65;0.30;;;15.80;64.80;;;;;;4846176;29;20065;-78
2023/02/02 11:37:14;;;;;;;1.95;0.50;;;15.90;64.90;;;;;;4845672;29;20414;-77
2023/02/02 11:39:43;;;;;;;1.77;0.30;;;15.90;64.90;;;;;;4845778;29;20386;-79
2023/02/02 11:42:19;;;;;;;3.03;0.30;;;15.90;64.90;;;;;;4845027;29;20462;-79
2023/02/02 11:44:52;;;;;;;1.83;0.32;;;15.90;64.80;;;;;;4845173;29;20060;-78
2023/02/02 11:47:33;;;;;;;2.90;0.40;;;15.90;64.70;;;;;;4845323;29;20369;-76
2023/02/02 11:50:03;;;;;;;1.02;0.50;;;15.90;64.70;;;;;;4845304;29;20115;-78
2023/02/02 11:52:31;;;;;;;0.90;0.32;;;15.90;65.10;;;;;;4845640;29;20094;-78
2023/02/02 11:55:00;;;;;;;1.25;0.30;;;15.90;65.40;;;;;;4845476;29;20132;-76
2023/02/02 11:57:28;;;;;;;1.10;0.30;;;16.00;65.00;;;;;;4845310;29;20053;-78
2023/02/02 12:00:09;;;;;;;1.92;0.38;;;16.00;64.90;;;;;;4845165;29;20054;-78
2023/02/02 12:02:35;;;;;;;2.17;0.63;;;16.00;64.50;;;;;;4829286;29;20136;-78
2023/02/02 12:05:22;;;;;;;2.22;0.30;;;16.00;64.50;;;;;;4829440;29;20137;-79
2023/02/02 12:07:48;;;;;;;2.33;0.45;;;16.00;64.10;;;;;;4835455;29;20069;-77
2023/02/02 12:10:33;;;;;;;1.70;0.40;;;16.00;64.20;;;;;;4845209;29;20050;-79
2023/02/02 12:13:23;;;;;;;1.23;0.40;;;16.00;64.10;;;;;;4845072;29;20081;-79
2023/02/02 12:15:57;;;;;;;1.33;0.30;;;16.00;63.70;;;;;;4829590;29;20177;-78
2023/02/02 12:18:38;;;;;;;1.30;0.35;;;16.00;63.50;;;;;;4826968;29;20054;-79
2023/02/02 12:21:09;;;;;;;1.23;0.50;;;16.00;63.30;;;;;;4826926;29;20083;-77
2023/02/02 12:23:41;;;;;;;0.98;0.38;;;16.00;63.30;;;;;;4837333;29;20470;-78
2023/02/02 12:26:37;;;;;;;1.60;0.40;;;15.90;63.20;;;;;;4851769;29;20087;-77
2023/02/02 12:29:03;;;;;;;1.17;0.22;;;15.90;63.10;;;;;;4829528;29;20089;-77
2023/02/02 12:31:32;;;;;;;1.48;0.30;;;15.90;63.20;;;;;;4857469;29;20392;-78
2023/02/02 12:34:16;;;;;;;0.95;0.40;;;15.80;63.20;;;;;;4852726;29;20061;-78
2023/02/02 12:36:52;;;;;;;2.40;0.55;;;15.80;63.20;;;;;;4833018;29;20137;-77
2023/02/02 12:40:57;;;;;;;3.63;0.45;;;15.60;62.80;;;;;;5129965;27;20378;-80
2023/02/02 12:43:39;;;;;;;6.93;1.05;;;15.60;63.90;;;;;;5105021;28;20051;-81
2023/02/02 12:46:11;;;;;;;8.85;1.02;;;15.60;64.00;;;;;;5095269;28;20047;-81
2023/02/02 12:49:18;;;;;;;3.15;0.50;;;15.60;64.00;;;;;;5094837;28;20039;-80
2023/02/02 12:51:59;;;;;;;6.03;0.60;;;15.50;63.80;;;;;;5063102;28;20052;-79
2023/02/02 12:54:31;;;;;;;4.90;0.80;;;15.50;64.20;;;;;;5112849;28;20066;-78
2023/02/02 12:57:20;;;;;;;7.38;0.70;;;15.50;64.10;;;;;;5091061;28;20097;-78
2023/02/02 13:00:16;;;;;;;3.25;0.73;;;15.40;64.20;;;;;;5108725;28;20104;-79
2023/02/02 13:03:16;;;;;;;8.45;0.70;;;15.40;64.30;;;;;;5112706;28;20414;-79
2023/02/02 13:05:53;;;;;;;2.65;0.77;;;15.40;64.40;;;;;;5112481;28;20056;-79
2023/02/02 13:08:32;;;;;;;4.28;1.00;;;15.40;64.50;;;;;;5094428;28;20047;-79
2023/02/02 13:11:37;;;;;;;2.83;0.80;;;15.40;64.50;;;;;;5094935;28;20040;-80
2023/02/02 13:14:15;;;;;;;6.70;1.10;;;15.30;64.40;;;;;;5101231;28;20064;-80
2023/02/02 13:16:49;;;;;;;5.25;1.23;;;15.30;64.50;;;;;;5112401;28;20127;-80
2023/02/02 13:19:22;;;;;;;;;;;15.30;64.50;;;;;;5112393;28;20377;-81
2023/02/02 13:21:49;;;;;;;2.90;0.73;;;15.30;64.40;;;;;;5108941;28;19920;-79
2023/02/02 13:24:22;;;;;;;8.60;1.20;;;15.30;64.50;;;;;;5112552;28;20054;-80
2023/02/02 13:26:48;;;;;;;8.63;1.00;;;15.20;64.30;;;;;;5095141;28;20083;-78
2023/02/02 13:29:36;;;;;;;3.97;0.82;;;15.20;64.30;;;;;;5111661;28;20044;-79
2023/02/02 13:32:27;;;;;;;4.90;0.80;;;15.20;64.20;;;;;;5112330;28;20365;-79
2023/02/02 13:35:11;;;;;;;4.70;0.90;;;15.20;64.30;;;;;;5094200;28;20343;-78
2023/02/02 13:38:15;;;;;;;8.00;1.05;;;15.20;64.30;;;;;;5111821;28;20459;-80
2023/02/02 13:40:42;;;;;;;4.95;0.60;;;15.10;64.20;;;;;;5108715;28;20048;-78
2023/02/02 13:43:52;;;;;;;2.38;0.80;;;15.10;64.20;;;;;;5112228;28;20044;-80
2023/02/02 13:46:36;;;;;;;7.03;1.40;;;15.10;64.20;;;;;;5010193;28;20050;-79
2023/02/02 13:49:26;;;;;;;3.58;0.90;;;15.10;64.30;;;;;;5102927;28;20052;-80
2023/02/02 13:51:57;;;;;;;4.10;0.82;;;15.10;64.20;;;;;;5097609;28;20502;-80
2023/02/02 13:54:59;;;;;;;5.40;1.33;;;15.00;64.20;;;;;;5098120;28;20355;-80
2023/02/02 13:57:33;;;;;;;4.05;1.00;;;15.00;64.20;;;;;;5098111;28;20048;-79
2023/02/02 14:00:20;;;;;;;4.22;1.08;;;15.00;64.30;;;;;;5097608;28;20054;-80
2023/02/02 14:02:48;;;;;;;4.70;1.10;;;15.00;64.30;;;;;;5079911;28;20058;-79
2023/02/02 14:05:30;;;;;;;2.42;1.00;;;15.00;64.40;;;;;;5098145;28;20089;-79
2023/02/02 14:08:03;;;;;;;5.93;1.10;;;15.00;64.40;;;;;;5098510;28;20036;-79
2023/02/02 14:10:38;;;;;;;6.50;2.10;;;14.90;64.30;;;;;;5089901;28;20094;-74
2023/02/02 14:16:06;;;;;;;13.38;3.40;;;14.90;63.80;;;;;;5098501;28;20055;-73
2023/02/02 14:18:47;;;;;;;21.35;3.92;;;14.90;63.50;;;;;;5097582;28;20486;-75
2023/02/02 14:21:32;;;;;;;19.95;4.38;;;14.80;63.00;;;;;;5097024;28;20048;-79
2023/02/02 14:24:04;;;;;;;30.83;5.80;;;14.60;63.40;;;;;;5062576;28;20056;-73
2023/02/02 14:26:43;;;;;;;15.10;3.67;;;14.50;64.00;;;;;;5097397;28;20047;-71
2023/02/02 14:29:38;;;;;;;30.60;5.30;;;14.40;64.10;;;;;;5078976;28;20051;-77
2023/02/02 14:32:26;;;;;;;18.50;3.63;;;14.30;64.60;;;;;;5097307;28;20354;-78
2023/02/02 14:35:07;;;;;;;22.85;4.50;;;14.30;64.90;;;;;;5079496;28;20055;-75
2023/02/02 14:37:47;;;;;;;29.67;4.60;;;14.30;65.20;;;;;;5097673;28;20048;-79
2023/02/02 14:40:25;;;;;;;18.67;3.95;;;14.50;65.30;;;;;;5096980;28;20062;-76
2023/02/02 14:46:06;;;;;;;26.63;5.30;;;14.80;65.50;;;;;;5097466;28;20059;-75
2023/02/02 14:48:32;;;;;;;41.60;6.53;;;14.90;65.70;;;;;;5097417;28;20047;-75
2023/02/02 14:51:01;;;;;;;33.03;6.47;;;15.00;65.80;;;;;;5096521;28;20036;-76
2023/02/02 14:53:28;;;;;;;33.72;6.28;;;15.10;66.10;;;;;;5096875;28;20044;-76
2023/02/02 14:55:56;;;;;;;45.47;7.13;;;15.20;66.10;;;;;;5078912;28;20059;-79
2023/02/02 14:58:45;;;;;;;41.30;5.97;;;15.20;66.30;;;;;;5096110;28;20051;-77
2023/02/02 15:01:22;;;;;;;43.50;8.02;;;15.20;66.60;;;;;;5096254;28;20362;-74
2023/02/02 15:03:54;;;;;;;41.17;6.82;;;15.30;66.70;;;;;;5095913;28;20047;-77
2023/02/02 15:06:26;;;;;;;40.38;6.82;;;15.30;67.20;;;;;;5096556;28;20055;-78
2023/02/02 15:09:25;;;;;;;40.63;6.65;;;15.30;67.20;;;;;;5097205;28;20360;-76
2023/02/02 15:12:05;;;;;;;47.53;7.72;;;15.30;67.50;;;;;;5096167;28;20118;-75
2023/02/02 15:15:16;;;;;;;52.80;8.15;;;15.30;68.10;;;;;;5096459;28;20039;-74
2023/02/02 15:17:49;;;;;;;34.63;6.75;;;15.40;67.90;;;;;;4995171;28;20460;-78
2023/02/02 15:20:19;;;;;;;43.75;6.18;;;15.40;67.80;;;;;;5069179;28;20052;-75
2023/02/02 15:22:57;;;;;;;30.10;5.57;;;15.40;67.70;;;;;;5096508;28;20036;-78
2023/02/02 15:25:39;;;;;;;38.10;6.22;;;15.50;67.50;;;;;;5096006;28;20044;-77
2023/02/02 15:28:20;;;;;;;41.55;5.97;;;15.60;67.40;;;;;;5096342;28;20044;-75
2023/02/02 15:30:55;;;;;;;26.95;4.47;;;15.70;67.50;;;;;;5096540;28;20314;-77
2023/02/02 15:33:45;;;;;;;28.13;5.53;;;15.80;67.30;;;;;;5095928;28;20055;-75
2023/02/02 15:36:22;;;;;;;36.80;5.75;;;15.90;67.30;;;;;;5078871;28;20048;-76
2023/02/02 15:38:58;;;;;;;31.75;4.57;;;15.90;67.10;;;;;;5095606;28;20056;-75
2023/02/02 15:41:32;;;;;;;29.08;4.63;;;16.00;67.10;;;;;;5095771;28;20048;-76
2023/02/02 15:43:58;;;;;;;22.75;5.13;;;16.00;67.50;;;;;;5096749;28;20131;-77
2023/02/02 15:46:31;;;;;;;29.23;5.20;;;16.10;67.40;;;;;;5077989;28;20052;-78
2023/02/02 15:49:18;;;;;;;27.25;6.15;;;16.10;67.30;;;;;;5077880;28;20051;-77
2023/02/02 15:51:45;;;;;;;26.40;4.32;;;16.20;67.30;;;;;;5095860;28;20388;-78
2023/02/02 15:54:33;;;;;;;28.42;4.55;;;16.20;67.00;;;;;;5095294;28;20052;-79
2023/02/02 15:57:00;;;;;;;28.55;4.70;;;16.20;67.50;;;;;;5078608;28;20044;-77
2023/02/02 15:59:38;;;;;;;25.73;4.78;;;16.20;67.80;;;;;;5095272;28;20116;-78
2023/02/02 16:02:09;;;;;;;35.00;5.78;;;16.10;68.30;;;;;;5077656;28;20047;-77
2023/02/02 16:04:38;;;;;;;32.97;5.72;;;16.10;68.50;;;;;;5095514;28;20408;-79
2023/02/02 16:07:10;;;;;;;35.65;5.40;;;16.20;69.30;;;;;;5095874;28;20421;-78
2023/02/02 16:09:40;;;;;;;38.15;5.30;;;16.10;68.80;;;;;;5095834;28;20177;-78
2023/02/02 16:12:12;;;;;;;30.25;4.35;;;16.10;69.00;;;;;;5095332;28;20044;-78
2023/02/02 16:14:40;;;;;;;29.98;5.05;;;16.10;69.00;;;;;;5095380;28;20062;-78
2023/02/02 16:17:12;;;;;;;38.30;6.68;;;16.10;68.80;;;;;;5095637;28;20047;-77
2023/02/02 16:19:41;;;;;;;33.75;6.32;;;16.10;68.80;;;;;;5094785;28;20036;-78
2023/02/02 16:22:14;;;;;;;34.00;6.03;;;16.00;68.70;;;;;;5077059;28;20052;-79
2023/02/02 16:24:46;;;;;;;28.45;5.05;;;16.00;68.70;;;;;;5095651;28;20051;-79
2023/02/02 16:27:17;;;;;;;39.67;5.72;;;16.00;68.70;;;;;;5093127;28;20080;-77
2023/02/02 16:29:44;;;;;;;33.53;5.97;;;16.00;68.70;;;;;;5088344;28;20051;-78
2023/02/02 16:32:45;;;;;;;30.02;5.63;;;16.00;68.70;;;;;;5060210;28;20049;-78
2023/02/02 16:35:33;;;;;;;25.83;5.00;;;15.90;68.50;;;;;;4963862;28;20066;-77
2023/02/02 16:38:32;;;;;;;27.42;3.90;;;15.90;68.30;;;;;;5078988;28;20490;-77
2023/02/02 16:41:10;;;;;;;22.30;4.18;;;15.90;68.20;;;;;;5072508;28;20063;-78
2023/02/02 16:43:38;;;;;;;20.88;4.25;;;15.80;68.10;;;;;;5084345;28;20051;-78
2023/02/02 16:46:13;;;;;;;21.58;4.32;;;15.80;68.10;;;;;;5083388;28;20409;-77
2023/02/02 16:48:55;;;;;;;20.13;4.03;;;15.80;68.00;;;;;;5085206;28;20092;-78
2023/02/02 16:51:27;;;;;;;27.15;3.90;;;15.80;67.80;;;;;;5085065;28;20474;-77
2023/02/02 16:54:04;;;;;;;22.00;4.22;;;15.70;67.20;;;;;;5086561;28;20107;-78
2023/02/02 16:56:40;;;;;;;22.02;3.63;;;15.70;67.00;;;;;;5066832;28;20469;-79
2023/02/02 16:59:24;;;;;;;19.58;4.03;;;15.60;67.10;;;;;;5091217;28;20046;-79
2023/02/02 17:01:58;;;;;;;26.60;4.78;;;15.60;66.80;;;;;;5045465;28;20122;-80
2023/02/02 17:04:30;;;;;;;30.17;5.13;;;15.50;67.00;;;;;;5064478;28;20429;-81
2023/02/02 17:07:29;;;;;;;27.40;4.13;;;15.50;67.40;;;;;;5060084;28;20100;-79
2023/02/02 17:10:22;;;;;;;24.00;3.97;;;15.50;67.70;;;;;;5062019;28;20478;-80
2023/02/02 17:12:48;;;;;;;17.35;3.45;;;15.50;67.90;;;;;;5060525;28;20101;-80
2023/02/02 17:15:17;;;;;;;24.48;3.97;;;15.10;66.70;;;;;;5094161;28;20040;-80
2023/02/02 17:17:49;;;;;;;21.23;3.75;;;14.80;67.50;;;;;;5094374;28;20164;-80
2023/02/02 17:20:16;;;;;;;31.15;4.68;;;14.60;68.10;;;;;;5077242;28;20044;-79
2023/02/02 17:23:05;;;;;;;21.85;4.18;;;14.60;68.60;;;;;;5076870;28;20067;-80
2023/02/02 17:25:41;;;;;;;20.00;4.10;;;14.70;68.70;;;;;;5096121;28;20062;-80
